Time;durP1;ratioP1;P1;durP2;ratioP2;P2;SDS_P1;SDS_P2;PMS_P1;PMS_P2;Temp;Humidity;BMP_temperature;BMP_pressure;BME280_temperature;BME280_humidity;BME280_pressure;Samples;Min_cycle;Max_cycle;Signal;HPM_P1;HPM_P2
2022/04/16 00:02:15;;;;;;;10.38;2.63;;;;;;;;;;4948230;29;20043;-75
2022/04/16 00:04:47;;;;;;;10.35;2.60;;;;;;;;;;4948858;29;20054;-75
2022/04/16 00:07:16;;;;;;;;;;;;;;;;;;4948873;29;20122;-75
2022/04/16 00:09:46;;;;;;;11.07;2.67;;;;;;;;;;4948230;29;19929;-75
2022/04/16 00:12:16;;;;;;;11.52;2.38;;;;;;;;;;4948259;29;20512;-75
2022/04/16 00:14:49;;;;;;;14.63;3.00;;;;;;;;;;4948296;29;20059;-75
2022/04/16 00:17:19;;;;;;;10.38;2.58;;;;;;;;;;4947850;29;20054;-75
2022/04/16 00:19:49;;;;;;;12.45;3.10;;;;;;;;;;4947922;29;20055;-75
2022/04/16 00:22:19;;;;;;;12.40;2.58;;;;;;;;;;4946422;29;20052;-76
2022/04/16 00:24:50;;;;;;;12.70;2.85;;;;;;;;;;4946844;29;20050;-75
2022/04/16 00:27:20;;;;;;;11.57;2.78;;;;;;;;;;4947546;28;20517;-75
2022/04/16 00:29:50;;;;;;;6.95;2.63;;;;;;;;;;4948118;29;20426;-74
2022/04/16 00:32:21;;;;;;;9.95;2.50;;;;;;;;;;4947779;28;20062;-74
2022/04/16 00:34:51;;;;;;;12.82;3.00;;;;;;;;;;4948023;29;20047;-74
2022/04/16 00:37:21;;;;;;;6.07;2.60;;;;;;;;;;4948171;29;20055;-74
2022/04/16 00:39:53;;;;;;;8.73;2.47;;;;;;;;;;4948047;29;20051;-74
2022/04/16 00:42:23;;;;;;;11.93;2.30;;;;;;;;;;4946263;29;20050;-74
2022/04/16 00:44:53;;;;;;;13.95;3.65;;;;;;;;;;4947686;28;20047;-74
2022/04/16 00:47:23;;;;;;;11.93;3.38;;;;;;;;;;4949654;29;20420;-74
2022/04/16 00:49:55;;;;;;;10.70;2.20;;;;;;;;;;4951504;29;20058;-73
2022/04/16 00:52:26;;;;;;;13.07;2.30;;;;;;;;;;4951253;29;20414;-74
2022/04/16 00:54:56;;;;;;;8.90;1.83;;;;;;;;;;4951564;28;20058;-74
2022/04/16 00:57:26;;;;;;;4.72;2.08;;;;;;;;;;4951833;29;20066;-74
2022/04/16 00:59:56;;;;;;;9.50;2.30;;;;;;;;;;4951412;28;20058;-74
2022/04/16 01:02:26;;;;;;;11.27;2.30;;;;;;;;;;4950829;29;20514;-74
2022/04/16 01:04:56;;;;;;;9.63;3.00;;;;;;;;;;4951564;29;20051;-73
2022/04/16 01:07:26;;;;;;;8.55;1.98;;;;;;;;;;4951151;29;20043;-74
2022/04/16 01:09:56;;;;;;;11.43;2.60;;;;;;;;;;4951213;28;20833;-74
2022/04/16 01:12:29;;;;;;;8.27;2.28;;;;;;;;;;4951592;29;20051;-73
2022/04/16 01:15:00;;;;;;;12.95;2.40;;;;;;;;;;4951043;29;20055;-74
2022/04/16 01:17:29;;;;;;;12.85;2.60;;;;;;;;;;4950621;29;20062;-74
2022/04/16 01:20:02;;;;;;;12.10;2.63;;;;;;;;;;4951283;29;20054;-74
2022/04/16 01:22:32;;;;;;;12.73;3.50;;;;;;;;;;4951336;29;20043;-74
2022/04/16 01:25:02;;;;;;;6.30;1.70;;;;;;;;;;4950594;29;20058;-74
2022/04/16 01:27:32;;;;;;;15.43;2.28;;;;;;;;;;4949536;28;20062;-74
2022/04/16 01:30:04;;;;;;;11.15;2.15;;;;;;;;;;4950657;29;20047;-74
2022/04/16 01:32:34;;;;;;;8.55;2.30;;;;;;;;;;4950635;29;20047;-75
2022/04/16 01:35:07;;;;;;;7.65;2.00;;;;;;;;;;4950809;29;20062;-74
2022/04/16 01:37:38;;;;;;;17.92;2.20;;;;;;;;;;4949760;28;20063;-74
2022/04/16 01:40:10;;;;;;;9.00;1.88;;;;;;;;;;4950456;29;20055;-74
2022/04/16 01:42:43;;;;;;;4.25;1.55;;;;;;;;;;4950505;28;20150;-74
2022/04/16 01:45:18;;;;;;;12.38;2.20;;;;;;;;;;4950625;29;20039;-74
2022/04/16 01:47:50;;;;;;;7.85;1.95;;;;;;;;;;4951111;29;20051;-74
2022/04/16 01:50:20;;;;;;;10.30;2.10;;;;;;;;;;4949986;29;20050;-74
2022/04/16 01:52:52;;;;;;;7.78;1.92;;;;;;;;;;4950001;29;20043;-74
2022/04/16 01:55:22;;;;;;;7.95;2.00;;;;;;;;;;4950245;29;20047;-74
2022/04/16 01:57:53;;;;;;;5.68;1.67;;;;;;;;;;4949324;28;20047;-75
2022/04/16 02:00:26;;;;;;;6.45;1.90;;;;;;;;;;4949900;29;20062;-74
2022/04/16 02:02:57;;;;;;;9.60;1.83;;;;;;;;;;4950404;29;20051;-74
2022/04/16 02:05:27;;;;;;;7.05;2.15;;;;;;;;;;4950180;29;20062;-74
2022/04/16 02:07:57;;;;;;;5.32;1.90;;;;;;;;;;4948867;29;20055;-74
2022/04/16 02:10:26;;;;;;;9.38;2.50;;;;;;;;;;4950571;29;20509;-75
2022/04/16 02:12:56;;;;;;;9.07;2.28;;;;;;;;;;4949686;29;20051;-75
2022/04/16 02:15:27;;;;;;;6.47;2.10;;;;;;;;;;4950190;29;20520;-74
2022/04/16 02:17:57;;;;;;;;;;;;;;;;;;4950417;29;20113;-74
2022/04/16 02:20:27;;;;;;;9.20;2.33;;;;;;;;;;4949775;29;19937;-75
2022/04/16 02:22:58;;;;;;;13.88;2.42;;;;;;;;;;4949660;29;20051;-74
2022/04/16 02:25:28;;;;;;;10.02;2.25;;;;;;;;;;4949698;29;20103;-75
2022/04/16 02:27:58;;;;;;;17.65;2.40;;;;;;;;;;4949357;28;20542;-75
2022/04/16 02:30:30;;;;;;;7.20;1.95;;;;;;;;;;4950198;29;20498;-75
2022/04/16 02:33:00;;;;;;;12.73;2.70;;;;;;;;;;4950351;29;20486;-75
2022/04/16 02:35:30;;;;;;;13.98;2.45;;;;;;;;;;4949811;29;20494;-74
2022/04/16 02:38:00;;;;;;;14.13;2.03;;;;;;;;;;4949065;29;20065;-74
2022/04/16 02:40:30;;;;;;;6.78;2.22;;;;;;;;;;4947370;29;20059;-74
2022/04/16 02:43:00;;;;;;;15.43;5.05;;;;;;;;;;4949637;29;20051;-74
2022/04/16 02:48:18;;;;;;;20.15;4.70;;;;;;;;;;4949404;29;20055;-74
2022/04/16 02:50:52;;;;;;;16.83;4.53;;;;;;;;;;4949588;29;20054;-74
2022/04/16 02:53:24;;;;;;;14.02;6.45;;;;;;;;;;4949141;29;20287;-74
2022/04/16 02:55:55;;;;;;;20.02;4.85;;;;;;;;;;4949645;29;20054;-74
2022/04/16 02:58:25;;;;;;;16.23;4.60;;;;;;;;;;4948905;28;20066;-74
2022/04/16 03:00:55;;;;;;;10.25;3.08;;;;;;;;;;4947344;29;20491;-74
2022/04/16 03:03:25;;;;;;;18.38;3.45;;;;;;;;;;4949258;29;20399;-74
2022/04/16 03:05:54;;;;;;;12.95;2.80;;;;;;;;;;4949023;29;20054;-74
2022/04/16 03:08:25;;;;;;;6.20;1.85;;;;;;;;;;4948884;28;20517;-74
2022/04/16 03:10:55;;;;;;;13.52;2.30;;;;;;;;;;4949008;29;20047;-74
2022/04/16 03:13:25;;;;;;;11.80;2.08;;;;;;;;;;4948771;29;20486;-74
2022/04/16 03:18:43;;;;;;;15.50;2.10;;;;;;;;;;4949063;29;20526;-75
2022/04/16 03:21:14;;;;;;;5.22;2.40;;;;;;;;;;4949032;28;20050;-75
2022/04/16 03:23:43;;;;;;;6.03;2.50;;;;;;;;;;4948946;29;20427;-75
2022/04/16 03:26:13;;;;;;;11.07;2.20;;;;;;;;;;4949133;29;20119;-75
2022/04/16 03:28:43;;;;;;;5.40;2.22;;;;;;;;;;4947698;28;20102;-75
2022/04/16 03:31:13;;;;;;;8.02;2.55;;;;;;;;;;4948644;29;20058;-75
2022/04/16 03:33:43;;;;;;;16.88;3.33;;;;;;;;;;4949300;29;20508;-75
2022/04/16 03:36:13;;;;;;;14.88;4.50;;;;;;;;;;4948621;29;20047;-76
2022/04/16 03:38:43;;;;;;;12.10;2.55;;;;;;;;;;4949134;29;20114;-75
2022/04/16 03:41:13;;;;;;;9.13;2.70;;;;;;;;;;4948710;29;20047;-75
2022/04/16 03:43:43;;;;;;;11.02;2.38;;;;;;;;;;4947189;28;20055;-75
2022/04/16 03:46:12;;;;;;;10.45;2.28;;;;;;;;;;4948794;29;20047;-75
2022/04/16 03:48:43;;;;;;;10.50;2.25;;;;;;;;;;4948364;29;20051;-74
2022/04/16 03:51:12;;;;;;;14.07;2.20;;;;;;;;;;4948377;28;20426;-75
2022/04/16 03:53:42;;;;;;;5.93;2.55;;;;;;;;;;4948602;28;20530;-75
2022/04/16 04:01:49;;;;;;;9.00;2.38;;;;;;;;;;4949175;29;20059;-75
2022/04/16 04:04:19;;;;;;;5.88;2.10;;;;;;;;;;4948879;29;20043;-73
2022/04/16 04:06:49;;;;;;;10.63;2.40;;;;;;;;;;4948472;29;20426;-74
2022/04/16 04:09:19;;;;;;;13.52;2.30;;;;;;;;;;4947953;29;20051;-74
2022/04/16 04:11:48;;;;;;;8.82;2.53;;;;;;;;;;4948329;29;20050;-74
2022/04/16 04:14:18;;;;;;;11.40;2.30;;;;;;;;;;4947414;28;20070;-75
2022/04/16 04:16:48;;;;;;;13.45;1.95;;;;;;;;;;4948250;29;20070;-75
2022/04/16 04:19:19;;;;;;;9.70;2.17;;;;;;;;;;4948250;29;20058;-75
2022/04/16 04:21:48;;;;;;;8.65;2.35;;;;;;;;;;4950690;29;20533;-75
2022/04/16 04:24:18;;;;;;;12.07;2.45;;;;;;;;;;4951925;28;20051;-75
2022/04/16 04:26:48;;;;;;;11.57;2.20;;;;;;;;;;4952098;29;20422;-75
2022/04/16 04:29:18;;;;;;;5.97;2.13;;;;;;;;;;4951799;29;20035;-76
2022/04/16 04:31:48;;;;;;;7.13;1.92;;;;;;;;;;4951505;29;20051;-76
2022/04/16 04:34:18;;;;;;;10.00;2.08;;;;;;;;;;4952242;29;20062;-75
2022/04/16 04:36:48;;;;;;;12.65;2.25;;;;;;;;;;4951464;29;20058;-75
2022/04/16 04:39:24;;;;;;;12.13;2.53;;;;;;;;;;4951959;29;20051;-75
2022/04/16 04:41:54;;;;;;;8.02;2.10;;;;;;;;;;4951651;29;20055;-75
2022/04/16 04:44:25;;;;;;;8.82;2.40;;;;;;;;;;4951681;29;20055;-75
2022/04/16 04:46:55;;;;;;;11.98;2.58;;;;;;;;;;4952035;29;20062;-76
2022/04/16 04:49:25;;;;;;;10.88;1.88;;;;;;;;;;4951990;29;20387;-74
2022/04/16 04:51:54;;;;;;;10.85;1.92;;;;;;;;;;4952134;29;20058;-75
2022/04/16 04:54:24;;;;;;;14.50;2.40;;;;;;;;;;4951662;29;20131;-76
2022/04/16 04:56:54;;;;;;;10.55;2.70;;;;;;;;;;4951675;29;20051;-75
2022/04/16 04:59:24;;;;;;;11.30;2.10;;;;;;;;;;4950786;28;20051;-76
2022/04/16 05:01:54;;;;;;;9.38;2.08;;;;;;;;;;4951252;29;20054;-75
2022/04/16 05:04:24;;;;;;;10.63;2.03;;;;;;;;;;4951102;29;20063;-75
2022/04/16 05:06:54;;;;;;;12.18;2.17;;;;;;;;;;4951252;29;20051;-76
2022/04/16 05:09:24;;;;;;;15.65;2.55;;;;;;;;;;4949835;29;20066;-76
2022/04/16 05:11:54;;;;;;;7.40;2.20;;;;;;;;;;4950955;29;20054;-76
2022/04/16 05:14:24;;;;;;;14.40;2.50;;;;;;;;;;4950973;29;20046;-75
2022/04/16 05:16:54;;;;;;;10.63;2.35;;;;;;;;;;4951638;29;20050;-76
2022/04/16 05:19:25;;;;;;;7.43;2.28;;;;;;;;;;4951290;29;20047;-75
2022/04/16 05:21:54;;;;;;;25.13;3.45;;;;;;;;;;4950665;29;20495;-75
2022/04/16 05:24:24;;;;;;;15.43;2.20;;;;;;;;;;4950631;29;20483;-74
2022/04/16 05:26:54;;;;;;;9.93;2.00;;;;;;;;;;4950463;29;20566;-74
2022/04/16 05:29:24;;;;;;;13.50;2.30;;;;;;;;;;4950850;29;20055;-74
2022/04/16 05:31:54;;;;;;;11.25;2.40;;;;;;;;;;4950733;28;20051;-74
2022/04/16 05:34:24;;;;;;;6.25;2.20;;;;;;;;;;4950477;29;20090;-74
2022/04/16 05:36:54;;;;;;;18.02;3.08;;;;;;;;;;4950313;29;20051;-74
2022/04/16 05:39:24;;;;;;;11.77;2.47;;;;;;;;;;4951129;29;20055;-74
2022/04/16 05:41:53;;;;;;;9.52;2.25;;;;;;;;;;4950632;29;20054;-74
2022/04/16 05:44:23;;;;;;;12.55;2.70;;;;;;;;;;4950584;29;20055;-74
2022/04/16 05:46:53;;;;;;;10.77;2.70;;;;;;;;;;4950384;29;20055;-74
2022/04/16 05:49:23;;;;;;;9.77;2.40;;;;;;;;;;4950530;29;20070;-74
2022/04/16 05:52:01;;;;;;;6.18;2.47;;;;;;;;;;4950637;29;20047;-74
2022/04/16 05:54:31;;;;;;;12.25;2.60;;;;;;;;;;4950045;29;20043;-74
2022/04/16 05:57:02;;;;;;;8.90;2.90;;;;;;;;;;4950246;29;20115;-74
2022/04/16 05:59:33;;;;;;;8.95;2.78;;;;;;;;;;4949831;28;20067;-74
2022/04/16 06:02:03;;;;;;;9.23;2.78;;;;;;;;;;4950623;29;20055;-75
2022/04/16 06:04:34;;;;;;;5.50;2.63;;;;;;;;;;4950727;29;20043;-76
2022/04/16 06:07:04;;;;;;;11.60;2.40;;;;;;;;;;4949832;29;20051;-75
2022/04/16 06:09:33;;;;;;;5.80;2.05;;;;;;;;;;4950084;29;20051;-76
2022/04/16 06:12:09;;;;;;;12.02;1.95;;;;;;;;;;4949782;29;20419;-76
2022/04/16 06:14:39;;;;;;;8.38;2.05;;;;;;;;;;4949489;29;20051;-75
2022/04/16 06:17:09;;;;;;;5.63;2.50;;;;;;;;;;4949905;29;20059;-75
2022/04/16 06:19:38;;;;;;;10.48;2.03;;;;;;;;;;4949796;29;20502;-76
2022/04/16 06:22:11;;;;;;;9.15;2.03;;;;;;;;;;4949369;28;20513;-76
2022/04/16 06:24:42;;;;;;;8.32;2.00;;;;;;;;;;4950084;29;20047;-75
2022/04/16 06:27:12;;;;;;;3.67;1.63;;;;;;;;;;4949840;29;20541;-76
2022/04/16 06:29:42;;;;;;;11.80;2.17;;;;;;;;;;4949744;29;20067;-75
2022/04/16 06:32:13;;;;;;;8.63;2.05;;;;;;;;;;4949720;29;20054;-75
2022/04/16 06:34:43;;;;;;;10.77;2.10;;;;;;;;;;4949509;29;20086;-76
2022/04/16 06:37:13;;;;;;;8.48;2.90;;;;;;;;;;4933224;28;20063;-75
2022/04/16 06:39:43;;;;;;;5.93;2.00;;;;;;;;;;4949151;29;20062;-75
2022/04/16 06:42:12;;;;;;;6.07;1.95;;;;;;;;;;4948955;29;20059;-75
2022/04/16 06:44:43;;;;;;;8.68;2.50;;;;;;;;;;4947995;28;20426;-75
2022/04/16 06:47:12;;;;;;;7.13;2.53;;;;;;;;;;4949828;29;20426;-75
2022/04/16 06:49:42;;;;;;;9.82;2.38;;;;;;;;;;4949489;29;20055;-74
2022/04/16 06:52:12;;;;;;;5.82;2.28;;;;;;;;;;4948814;29;20058;-75
2022/04/16 06:54:42;;;;;;;7.93;2.58;;;;;;;;;;4949182;29;20051;-75
2022/04/16 06:57:12;;;;;;;7.47;2.60;;;;;;;;;;4949013;29;20062;-75
2022/04/16 06:59:42;;;;;;;14.77;2.80;;;;;;;;;;4948598;28;20066;-75
2022/04/16 07:02:12;;;;;;;9.63;3.22;;;;;;;;;;4949580;29;20514;-75
2022/04/16 07:04:42;;;;;;;14.38;3.50;;;;;;;;;;4947602;28;20066;-75
2022/04/16 07:07:12;;;;;;;13.63;4.13;;;;;;;;;;4949978;29;20062;-75
2022/04/16 07:09:42;;;;;;;15.20;3.90;;;;;;;;;;4949452;29;20047;-76
2022/04/16 07:12:13;;;;;;;11.63;4.65;;;;;;;;;;4949114;29;20051;-75
2022/04/16 07:14:43;;;;;;;15.98;3.85;;;;;;;;;;4948619;29;20047;-75
2022/04/16 07:17:17;;;;;;;11.63;4.80;;;;;;;;;;4949438;29;20058;-75
2022/04/16 07:19:46;;;;;;;14.27;4.05;;;;;;;;;;4950284;29;20051;-75
2022/04/16 07:22:20;;;;;;;17.40;4.78;;;;;;;;;;4950681;29;20047;-75
2022/04/16 07:24:51;;;;;;;14.25;3.35;;;;;;;;;;4947351;29;20062;-75
2022/04/16 07:27:21;;;;;;;9.82;3.78;;;;;;;;;;4948539;29;20420;-75
2022/04/16 07:29:58;;;;;;;14.55;4.18;;;;;;;;;;4948931;29;20067;-76
2022/04/16 07:32:28;;;;;;;6.40;2.35;;;;;;;;;;4949075;29;20046;-75
2022/04/16 07:34:58;;;;;;;8.88;2.67;;;;;;;;;;4948404;29;20043;-75
2022/04/16 07:37:28;;;;;;;14.40;2.47;;;;;;;;;;4948642;28;20055;-75
2022/04/16 07:39:58;;;;;;;8.20;3.17;;;;;;;;;;4948017;29;20074;-75
2022/04/16 07:42:30;;;;;;;5.32;3.10;;;;;;;;;;4948579;29;20051;-75
2022/04/16 07:45:00;;;;;;;8.48;4.10;;;;;;;;;;4947199;29;20047;-75
2022/04/16 07:47:30;;;;;;;7.32;3.50;;;;;;;;;;4948181;29;20517;-75
2022/04/16 07:50:01;;;;;;;7.22;3.08;;;;;;;;;;4948881;29;20521;-75
2022/04/16 07:52:32;;;;;;;;;;;;;;;;;;4948758;29;20062;-74
2022/04/16 07:55:03;;;;;;;5.35;3.05;;;;;;;;;;4948399;28;19926;-75
2022/04/16 07:57:34;;;;;;;;;;;;;;;;;;4953127;29;20050;-75
2022/04/16 08:00:06;;;;;;;7.47;3.47;;;;;;;;;;4952775;28;19922;-75
2022/04/16 08:02:39;;;;;;;7.32;3.28;;;;;;;;;;4953359;29;20059;-75
2022/04/16 08:05:09;;;;;;;4.93;3.38;;;;;;;;;;4951983;29;20047;-75
2022/04/16 08:07:39;;;;;;;7.15;3.10;;;;;;;;;;4952124;29;20636;-74
2022/04/16 08:10:10;;;;;;;10.48;2.78;;;;;;;;;;4951280;28;20059;-75
2022/04/16 08:12:40;;;;;;;5.72;2.22;;;;;;;;;;4951780;29;20051;-74
2022/04/16 08:15:10;;;;;;;9.00;2.30;;;;;;;;;;4952049;29;20050;-74
2022/04/16 08:17:40;;;;;;;11.38;2.80;;;;;;;;;;4951885;29;20066;-74
2022/04/16 08:20:10;;;;;;;8.25;2.80;;;;;;;;;;4951840;29;20054;-74
2022/04/16 08:22:46;;;;;;;16.55;3.40;;;;;;;;;;4952610;29;20066;-74
2022/04/16 08:28:07;;;;;;;6.97;2.40;;;;;;;;;;4951572;29;20051;-75
2022/04/16 08:30:37;;;;;;;6.55;2.40;;;;;;;;;;4952003;29;20128;-75
2022/04/16 08:33:13;;;;;;;12.07;2.63;;;;;;;;;;4951954;29;20078;-74
2022/04/16 08:35:45;;;;;;;9.18;2.95;;;;;;;;;;4951326;29;20058;-75
2022/04/16 08:38:15;;;;;;;10.50;2.45;;;;;;;;;;4951363;29;20517;-75
2022/04/16 08:40:45;;;;;;;7.80;2.45;;;;;;;;;;4952141;29;20051;-75
2022/04/16 08:43:15;;;;;;;8.10;3.00;;;;;;;;;;4951766;29;20074;-75
2022/04/16 08:45:48;;;;;;;12.35;2.50;;;;;;;;;;4951774;29;20059;-74
2022/04/16 08:48:20;;;;;;;16.08;2.88;;;;;;;;;;4951669;29;20047;-74
2022/04/16 08:50:52;;;;;;;14.32;2.80;;;;;;;;;;4951197;29;20058;-74
2022/04/16 08:53:21;;;;;;;;;;;;;;;;;;4952180;29;20051;-74
2022/04/16 08:55:51;;;;;;;7.20;2.88;;;;;;;;;;4951613;29;20300;-74
2022/04/16 08:58:21;;;;;;;9.02;3.35;;;;;;;;;;4951375;28;20059;-74
2022/04/16 09:00:52;;;;;;;10.82;4.03;;;;;;;;;;4951635;29;20133;-74
2022/04/16 09:03:21;;;;;;;8.15;3.58;;;;;;;;;;4951006;29;20066;-75
2022/04/16 09:05:56;;;;;;;6.82;3.30;;;;;;;;;;4951389;28;20047;-74
2022/04/16 09:08:30;;;;;;;11.98;3.92;;;;;;;;;;4951447;29;20043;-75
2022/04/16 09:11:11;;;;;;;8.02;3.33;;;;;;;;;;4949812;29;20051;-74
2022/04/16 09:13:50;;;;;;;8.90;3.60;;;;;;;;;;4951383;28;20051;-74
2022/04/16 09:16:21;;;;;;;10.25;3.40;;;;;;;;;;4951393;29;20055;-75
2022/04/16 09:18:56;;;;;;;15.07;4.53;;;;;;;;;;4950989;29;20434;-73
2022/04/16 09:21:28;;;;;;;12.38;3.95;;;;;;;;;;4951054;29;20627;-73
2022/04/16 09:24:02;;;;;;;7.95;3.85;;;;;;;;;;4951300;29;20062;-73
2022/04/16 09:26:37;;;;;;;7.90;3.38;;;;;;;;;;4950676;29;20509;-73
2022/04/16 09:29:16;;;;;;;13.68;3.70;;;;;;;;;;4950274;29;20047;-73
2022/04/16 09:31:49;;;;;;;10.38;3.40;;;;;;;;;;4950891;29;20057;-73
2022/04/16 09:34:23;;;;;;;11.85;3.92;;;;;;;;;;4950966;29;20054;-73
2022/04/16 09:36:54;;;;;;;9.63;3.60;;;;;;;;;;4950338;29;20055;-73
2022/04/16 09:39:25;;;;;;;12.25;3.45;;;;;;;;;;4948968;29;20511;-74
2022/04/16 09:41:55;;;;;;;11.70;4.03;;;;;;;;;;4950432;29;20055;-74
2022/04/16 09:44:27;;;;;;;8.27;3.35;;;;;;;;;;4950704;29;20063;-74
2022/04/16 09:46:58;;;;;;;17.85;4.00;;;;;;;;;;4949737;29;20047;-74
2022/04/16 09:49:30;;;;;;;7.07;3.15;;;;;;;;;;4950169;29;20058;-74
2022/04/16 09:52:02;;;;;;;11.70;3.42;;;;;;;;;;4949492;29;20074;-75
2022/04/16 09:54:36;;;;;;;10.60;3.00;;;;;;;;;;4949681;29;20051;-74
2022/04/16 09:57:07;;;;;;;11.13;4.15;;;;;;;;;;4950376;29;20058;-74
2022/04/16 09:59:40;;;;;;;10.95;3.80;;;;;;;;;;4949786;28;20059;-74
2022/04/16 10:02:15;;;;;;;8.40;3.78;;;;;;;;;;4950513;29;20533;-74
2022/04/16 10:04:47;;;;;;;14.52;4.07;;;;;;;;;;4949683;29;20055;-73
2022/04/16 10:07:20;;;;;;;9.00;3.58;;;;;;;;;;4949798;29;20510;-74
2022/04/16 10:09:53;;;;;;;7.20;3.23;;;;;;;;;;4950492;29;20048;-74
2022/04/16 10:15:07;;;;;;;9.70;2.75;;;;;;;;;;4950490;29;20701;-74
2022/04/16 10:17:42;;;;;;;5.60;2.30;;;;;;;;;;4949952;28;20050;-74
2022/04/16 10:20:17;;;;;;;13.07;3.28;;;;;;;;;;4949306;29;20043;-74
2022/04/16 10:22:54;;;;;;;17.38;4.25;;;;;;;;;;4949668;29;20047;-73
2022/04/16 10:26:01;;;;;;;5.00;2.90;;;;;;;;;;4948459;29;20059;-72
2022/04/16 10:31:37;;;;;;;8.98;2.75;;;;;;;;;;4948645;29;20051;-75
2022/04/16 10:34:11;;;;;;;10.68;3.03;;;;;;;;;;4949272;29;20043;-75
2022/04/16 10:36:54;;;;;;;8.65;3.35;;;;;;;;;;4949200;29;20058;-74
2022/04/16 10:39:33;;;;;;;9.48;2.80;;;;;;;;;;4947941;29;20850;-74
2022/04/16 10:42:04;;;;;;;10.38;3.35;;;;;;;;;;4946432;29;20047;-76
2022/04/16 10:44:48;;;;;;;8.57;4.18;;;;;;;;;;4947584;28;20067;-74
2022/04/16 10:47:18;;;;;;;8.50;3.67;;;;;;;;;;4946077;29;20062;-74
2022/04/16 10:49:49;;;;;;;9.63;3.80;;;;;;;;;;4948004;29;20054;-76
2022/04/16 10:52:19;;;;;;;17.02;5.18;;;;;;;;;;4947626;29;20043;-75
2022/04/16 10:55:00;;;;;;;15.82;5.13;;;;;;;;;;4946169;29;20059;-74
2022/04/16 10:57:30;;;;;;;10.00;3.43;;;;;;;;;;4945118;29;20050;-74
2022/04/16 11:00:13;;;;;;;10.27;2.97;;;;;;;;;;4945382;29;20090;-74
2022/04/16 11:03:17;;;;;;;11.32;5.65;;;;;;;;;;4949438;29;20043;-74
2022/04/16 11:05:47;;;;;;;16.58;5.32;;;;;;;;;;4949393;29;20062;-75
2022/04/16 11:08:22;;;;;;;11.40;3.97;;;;;;;;;;4947532;29;20058;-74
2022/04/16 11:11:02;;;;;;;5.80;3.53;;;;;;;;;;4947644;29;20155;-75
2022/04/16 11:13:37;;;;;;;12.10;4.80;;;;;;;;;;4948698;29;20069;-75
2022/04/16 11:16:07;;;;;;;17.35;4.40;;;;;;;;;;4948924;29;20387;-74
2022/04/16 11:18:45;;;;;;;15.73;4.95;;;;;;;;;;4948434;28;20047;-74
2022/04/16 11:21:20;;;;;;;10.75;4.93;;;;;;;;;;4948670;29;20058;-75
2022/04/16 11:23:52;;;;;;;14.60;5.60;;;;;;;;;;4947857;29;20043;-74
2022/04/16 11:34:59;;;;;;;11.60;4.45;;;;;;;;;;4949171;29;19942;-74
2022/04/16 11:37:32;;;;;;;17.55;5.45;;;;;;;;;;4948311;29;20058;-79
2022/04/16 11:40:05;;;;;;;15.77;5.97;;;;;;;;;;4948971;29;20070;-74
2022/04/16 11:42:36;;;;;;;15.13;4.03;;;;;;;;;;4948461;29;20070;-74
2022/04/16 11:45:07;;;;;;;10.15;3.97;;;;;;;;;;4949358;29;20055;-75
2022/04/16 11:47:38;;;;;;;9.13;3.75;;;;;;;;;;4948649;29;20658;-74
2022/04/16 11:50:11;;;;;;;18.13;4.60;;;;;;;;;;4948235;29;20063;-75
2022/04/16 11:52:41;;;;;;;13.32;4.05;;;;;;;;;;4948042;29;20067;-75
2022/04/16 11:55:19;;;;;;;9.10;4.30;;;;;;;;;;4948602;29;20066;-74
2022/04/16 11:57:54;;;;;;;15.70;4.82;;;;;;;;;;4948640;29;20048;-75
2022/04/16 12:00:24;;;;;;;9.80;3.60;;;;;;;;;;4947642;29;20070;-75
2022/04/16 12:02:57;;;;;;;9.15;4.78;;;;;;;;;;4948643;29;20059;-75
2022/04/16 12:05:29;;;;;;;9.90;3.80;;;;;;;;;;4948097;29;20047;-75
2022/04/16 12:07:59;;;;;;;9.43;3.95;;;;;;;;;;4948176;29;20054;-75
2022/04/16 12:10:29;;;;;;;10.43;3.40;;;;;;;;;;4947828;29;20047;-75
2022/04/16 12:13:09;;;;;;;7.95;3.75;;;;;;;;;;4947604;29;20043;-75
2022/04/16 12:15:44;;;;;;;10.40;3.55;;;;;;;;;;4947728;29;20043;-75
2022/04/16 12:18:18;;;;;;;8.38;3.85;;;;;;;;;;4948166;29;20066;-75
2022/04/16 12:20:49;;;;;;;11.77;3.88;;;;;;;;;;4948255;29;20062;-75
2022/04/16 12:23:20;;;;;;;6.70;3.25;;;;;;;;;;4947912;29;20051;-76
2022/04/16 12:26:02;;;;;;;14.18;3.90;;;;;;;;;;4948033;29;20067;-78
2022/04/16 12:28:33;;;;;;;5.93;2.63;;;;;;;;;;4948377;29;20043;-77
2022/04/16 12:31:04;;;;;;;11.20;2.85;;;;;;;;;;4947838;29;20054;-78
2022/04/16 12:33:33;;;;;;;9.27;3.08;;;;;;;;;;4948054;29;20541;-77
2022/04/16 12:36:06;;;;;;;5.87;2.77;;;;;;;;;;4947955;29;20062;-76
2022/04/16 12:38:37;;;;;;;35.60;5.32;;;;;;;;;;4947004;28;20082;-78
2022/04/16 12:41:09;;;;;;;10.73;3.20;;;;;;;;;;4948362;28;20053;-76
2022/04/16 12:43:43;;;;;;;15.95;2.85;;;;;;;;;;4951722;29;20054;-77
2022/04/16 12:46:13;;;;;;;5.43;2.85;;;;;;;;;;4951334;29;20062;-77
2022/04/16 12:48:43;;;;;;;12.63;3.17;;;;;;;;;;4951465;29;20515;-78
2022/04/16 12:51:13;;;;;;;5.97;2.70;;;;;;;;;;4951660;29;20047;-77
2022/04/16 12:53:43;;;;;;;9.97;3.17;;;;;;;;;;4951424;29;20584;-78
2022/04/16 12:56:13;;;;;;;7.53;2.78;;;;;;;;;;4951570;29;20047;-76
2022/04/16 12:58:43;;;;;;;14.23;3.92;;;;;;;;;;4951650;29;20055;-78
2022/04/16 13:01:17;;;;;;;9.15;2.92;;;;;;;;;;4951570;29;20054;-78
2022/04/16 13:03:47;;;;;;;10.68;3.67;;;;;;;;;;4951567;29;20426;-77
2022/04/16 13:06:17;;;;;;;9.13;2.90;;;;;;;;;;4951542;29;20525;-76
2022/04/16 13:08:47;;;;;;;9.50;3.65;;;;;;;;;;4950970;29;20047;-75
2022/04/16 13:11:20;;;;;;;;;;;;;;;;;;4951066;29;20410;-77
2022/04/16 13:13:51;;;;;;;8.73;3.53;;;;;;;;;;4950475;29;19933;-76
2022/04/16 13:16:20;;;;;;;10.35;3.78;;;;;;;;;;4950255;29;20612;-76
2022/04/16 13:18:51;;;;;;;9.18;2.85;;;;;;;;;;4950111;29;20416;-75
2022/04/16 13:21:20;;;;;;;14.30;4.05;;;;;;;;;;4950774;29;20058;-76
2022/04/16 13:23:51;;;;;;;11.20;3.23;;;;;;;;;;4950559;29;20055;-76
2022/04/16 13:26:25;;;;;;;12.73;3.33;;;;;;;;;;4950870;29;20047;-76
2022/04/16 13:28:54;;;;;;;9.27;3.88;;;;;;;;;;4950712;29;20503;-75
2022/04/16 13:31:25;;;;;;;9.00;4.43;;;;;;;;;;4950368;29;20051;-76
2022/04/16 13:33:54;;;;;;;19.65;4.32;;;;;;;;;;4950390;29;20116;-77
2022/04/16 13:36:26;;;;;;;12.83;3.53;;;;;;;;;;4950830;29;20039;-77
2022/04/16 13:38:56;;;;;;;11.95;3.70;;;;;;;;;;4949536;29;20317;-76
2022/04/16 13:41:40;;;;;;;12.80;4.35;;;;;;;;;;4949923;29;20047;-75
2022/04/16 13:44:11;;;;;;;9.05;3.60;;;;;;;;;;4950839;29;20406;-78
2022/04/16 13:46:41;;;;;;;12.15;3.40;;;;;;;;;;4949583;29;20074;-77
2022/04/16 13:49:11;;;;;;;11.80;3.08;;;;;;;;;;4950129;29;20062;-76
2022/04/16 13:51:41;;;;;;;18.90;3.80;;;;;;;;;;4950621;29;20051;-78
2022/04/16 13:54:11;;;;;;;9.07;2.65;;;;;;;;;;4949977;28;20490;-77
2022/04/16 13:56:41;;;;;;;16.73;3.57;;;;;;;;;;4949901;29;20058;-76
2022/04/16 13:59:10;;;;;;;12.57;3.65;;;;;;;;;;4946801;29;20070;-77
2022/04/16 14:01:40;;;;;;;10.95;3.30;;;;;;;;;;4945964;29;20042;-76
2022/04/16 14:04:11;;;;;;;17.50;3.50;;;;;;;;;;4945942;29;20055;-77
2022/04/16 14:06:42;;;;;;;14.32;3.10;;;;;;;;;;4946709;29;20742;-77
2022/04/16 14:09:12;;;;;;;16.58;3.38;;;;;;;;;;4945999;29;20503;-78
2022/04/16 14:11:42;;;;;;;11.68;3.50;;;;;;;;;;4945520;29;20047;-78
2022/04/16 14:14:12;;;;;;;24.98;4.43;;;;;;;;;;4945652;29;20051;-76
2022/04/16 14:16:42;;;;;;;14.45;3.53;;;;;;;;;;4946377;29;20054;-76
2022/04/16 14:19:12;;;;;;;12.23;3.23;;;;;;;;;;4945783;29;20054;-77
2022/04/16 14:21:46;;;;;;;13.43;3.85;;;;;;;;;;4945165;28;20055;-77
2022/04/16 14:24:15;;;;;;;10.98;3.33;;;;;;;;;;4946932;29;20059;-77
2022/04/16 14:26:46;;;;;;;10.05;3.38;;;;;;;;;;4946044;29;20055;-78
2022/04/16 14:29:17;;;;;;;6.97;2.47;;;;;;;;;;4948942;29;20051;-77
2022/04/16 14:31:47;;;;;;;14.88;3.08;;;;;;;;;;4949640;29;20047;-77
2022/04/16 14:34:19;;;;;;;26.38;4.18;;;;;;;;;;4948813;29;20058;-78
2022/04/16 14:36:49;;;;;;;16.27;3.53;;;;;;;;;;4949481;29;20127;-77
2022/04/16 14:39:19;;;;;;;21.95;4.25;;;;;;;;;;4949578;29;20073;-77
2022/04/16 14:41:49;;;;;;;10.80;4.20;;;;;;;;;;4949193;29;20062;-77
2022/04/16 14:44:19;;;;;;;25.23;8.23;;;;;;;;;;4949115;29;20051;-78
2022/04/16 14:46:50;;;;;;;7.82;2.40;;;;;;;;;;4949520;29;20077;-78
2022/04/16 14:49:21;;;;;;;11.98;3.05;;;;;;;;;;4948981;29;20051;-78
2022/04/16 14:51:58;;;;;;;13.30;2.90;;;;;;;;;;4949609;28;20057;-77
2022/04/16 14:54:28;;;;;;;12.45;3.15;;;;;;;;;;4949756;28;20047;-78
2022/04/16 14:57:09;;;;;;;9.90;2.78;;;;;;;;;;4948753;29;20085;-79
2022/04/16 14:59:39;;;;;;;13.87;2.77;;;;;;;;;;4948184;29;20063;-78
2022/04/16 15:02:09;;;;;;;12.55;3.72;;;;;;;;;;4948101;29;20051;-78
2022/04/16 15:04:39;;;;;;;17.35;3.72;;;;;;;;;;4948172;28;20483;-78
2022/04/16 15:07:30;;;;;;;14.10;5.38;;;;;;;;;;4949778;28;20051;-77
2022/04/16 15:10:01;;;;;;;13.20;2.92;;;;;;;;;;4948723;29;20383;-76
2022/04/16 15:12:32;;;;;;;10.75;2.65;;;;;;;;;;4948597;29;20556;-78
2022/04/16 15:15:02;;;;;;;7.70;2.53;;;;;;;;;;4948509;28;20055;-78
2022/04/16 15:17:31;;;;;;;16.98;5.40;;;;;;;;;;4949586;29;20050;-77
2022/04/16 15:20:01;;;;;;;13.23;3.30;;;;;;;;;;4949234;29;20050;-78
2022/04/16 15:22:31;;;;;;;6.15;2.30;;;;;;;;;;4948699;29;20055;-77
2022/04/16 15:25:01;;;;;;;11.93;2.45;;;;;;;;;;4948714;29;20402;-76
2022/04/16 15:27:31;;;;;;;9.57;2.30;;;;;;;;;;4948768;29;20043;-77
2022/04/16 15:30:01;;;;;;;11.90;2.40;;;;;;;;;;4948483;29;20043;-76
2022/04/16 15:32:31;;;;;;;13.70;2.58;;;;;;;;;;4948433;29;20051;-76